HDM weather

Dirección de Seguridad Pública Municipal Heliport
Mexicali, Baja California, Mexico

Public forecast

Using degrees Celsius for public forecast. Weather courtesy of forecast.io.

METAR (pilot weather report)

Closest report is General Rodolfo Sánchez Taboada International Airport, 12.0 nm (22.2 km) E. Retrieved 2019/08/21 15:40 UTC (0 seconds ago):

MMML 211540Z 35004KT 10SM SKC 34/07 A2975

TAF (pilot weather forecast)

Forecast is more than 6 hours old.

Closest forecast is General Rodolfo Sánchez Taboada International Airport, 12.0 nm (22.2 km) E. Retrieved 2019/08/21 06:54 UTC (9 hours ago):

TAF MMML 210450Z 2106/2206 22005KT P6SM SKC FM211800 30010KT P6SM SKC FM220300 33005KT P6SM SKC